sensor_id;sensor_type;location;lat;lon;timestamp;temperature;humidity
17701;DHT22;8969;48.576;12.580;2022-11-13T15:48:32;10.50;99.90
17701;DHT22;8969;48.576;12.580;2022-11-13T15:51:23;10.50;99.90
17701;DHT22;8969;48.576;12.580;2022-11-13T15:54:14;10.40;99.90
17701;DHT22;8969;48.576;12.580;2022-11-13T15:57:01;10.40;99.90
17701;DHT22;8969;48.576;12.580;2022-11-13T15:59:50;10.40;99.90
17701;DHT22;8969;48.576;12.580;2022-11-13T16:02:36;10.30;99.90
17701;DHT22;8969;48.576;12.580;2022-11-13T16:05:26;10.20;99.90
17701;DHT22;8969;48.576;12.580;2022-11-13T16:08:14;10.20;99.90
17701;DHT22;8969;48.576;12.580;2022-11-13T16:11:02;10.20;99.90
17701;DHT22;8969;48.576;12.580;2022-11-13T16:13:49;10.30;99.90
17701;DHT22;8969;48.576;12.580;2022-11-13T16:16:38;10.20;99.90
17701;DHT22;8969;48.576;12.580;2022-11-13T16:19:25;10.30;99.90
17701;DHT22;8969;48.576;12.580;2022-11-13T16:22:16;10.20;99.90
17701;DHT22;8969;48.576;12.580;2022-11-13T16:25:04;10.20;99.90
17701;DHT22;8969;48.576;12.580;2022-11-13T16:27:51;10.10;99.90
17701;DHT22;8969;48.576;12.580;2022-11-13T16:30:38;10.20;99.90
17701;DHT22;8969;48.576;12.580;2022-11-13T16:33:26;10.10;99.90
17701;DHT22;8969;48.576;12.580;2022-11-13T16:36:13;10.10;99.90
17701;DHT22;8969;48.576;12.580;2022-11-13T16:39:00;10.00;99.90
17701;DHT22;8969;48.576;12.580;2022-11-13T16:41:47;10.00;99.90
17701;DHT22;8969;48.576;12.580;2022-11-13T16:44:34;10.10;99.90
17701;DHT22;8969;48.576;12.580;2022-11-13T16:47:22;10.10;99.90
17701;DHT22;8969;48.576;12.580;2022-11-13T16:50:16;10.10;99.90
17701;DHT22;8969;48.576;12.580;2022-11-13T16:53:03;10.10;99.90
17701;DHT22;8969;48.576;12.580;2022-11-13T16:55:50;10.10;99.90
17701;DHT22;8969;48.576;12.580;2022-11-13T16:58:37;10.00;99.90
17701;DHT22;8969;48.576;12.580;2022-11-13T17:01:25;10.00;99.90
17701;DHT22;8969;48.576;12.580;2022-11-13T17:04:12;10.00;99.90
17701;DHT22;8969;48.576;12.580;2022-11-13T17:07:01;10.00;99.90
17701;DHT22;8969;48.576;12.580;2022-11-13T17:09:48;10.00;99.90
17701;DHT22;8969;48.576;12.580;2022-11-13T17:12:55;9.90;99.90
17701;DHT22;8969;48.576;12.580;2022-11-13T17:15:42;9.90;99.90
17701;DHT22;8969;48.576;12.580;2022-11-13T17:18:29;10.00;99.90
17701;DHT22;8969;48.576;12.580;2022-11-13T17:21:16;10.00;99.90
17701;DHT22;8969;48.576;12.580;2022-11-13T17:24:05;9.90;99.90
17701;DHT22;8969;48.576;12.580;2022-11-13T17:26:52;9.80;99.90
17701;DHT22;8969;48.576;12.580;2022-11-13T17:29:39;9.90;99.90
17701;DHT22;8969;48.576;12.580;2022-11-13T17:32:26;9.90;99.90
17701;DHT22;8969;48.576;12.580;2022-11-13T17:35:14;9.80;99.90
17701;DHT22;8969;48.576;12.580;2022-11-13T17:38:00;9.80;99.90
17701;DHT22;8969;48.576;12.580;2022-11-13T17:40:48;9.80;99.90
17701;DHT22;8969;48.576;12.580;2022-11-13T17:43:35;9.90;99.90
17701;DHT22;8969;48.576;12.580;2022-11-13T17:46:23;9.80;99.90
17701;DHT22;8969;48.576;12.580;2022-11-13T17:49:10;9.70;99.90
17701;DHT22;8969;48.576;12.580;2022-11-13T17:51:57;9.70;99.90
17701;DHT22;8969;48.576;12.580;2022-11-13T17:54:44;9.70;99.90
17701;DHT22;8969;48.576;12.580;2022-11-13T17:57:32;9.70;99.90
17701;DHT22;8969;48.576;12.580;2022-11-13T18:00:19;9.70;99.90
17701;DHT22;8969;48.576;12.580;2022-11-13T18:03:05;9.70;99.90
17701;DHT22;8969;48.576;12.580;2022-11-13T18:05:52;9.70;99.90
17701;DHT22;8969;48.576;12.580;2022-11-13T18:08:39;9.70;99.90
17701;DHT22;8969;48.576;12.580;2022-11-13T18:11:27;9.70;99.90
17701;DHT22;8969;48.576;12.580;2022-11-13T18:14:16;9.70;99.90
17701;DHT22;8969;48.576;12.580;2022-11-13T18:17:03;9.70;99.90
17701;DHT22;8969;48.576;12.580;2022-11-13T18:19:50;9.60;99.90
17701;DHT22;8969;48.576;12.580;2022-11-13T18:22:46;9.60;99.90
17701;DHT22;8969;48.576;12.580;2022-11-13T18:25:34;9.60;99.90
17701;DHT22;8969;48.576;12.580;2022-11-13T18:28:24;9.60;99.90
17701;DHT22;8969;48.576;12.580;2022-11-13T18:31:13;9.60;99.90
17701;DHT22;8969;48.576;12.580;2022-11-13T18:34:01;9.60;99.90
17701;DHT22;8969;48.576;12.580;2022-11-13T18:36:49;9.60;99.90
17701;DHT22;8969;48.576;12.580;2022-11-13T18:39:36;9.50;99.90
17701;DHT22;8969;48.576;12.580;2022-11-13T18:42:24;9.60;99.90
17701;DHT22;8969;48.576;12.580;2022-11-13T18:45:11;9.60;99.90
17701;DHT22;8969;48.576;12.580;2022-11-13T18:48:02;9.60;99.90
17701;DHT22;8969;48.576;12.580;2022-11-13T18:50:54;9.50;99.90
17701;DHT22;8969;48.576;12.580;2022-11-13T18:53:43;9.50;99.90
17701;DHT22;8969;48.576;12.580;2022-11-13T18:56:31;9.40;99.90
17701;DHT22;8969;48.576;12.580;2022-11-13T18:59:17;9.50;99.90
17701;DHT22;8969;48.576;12.580;2022-11-13T19:02:05;9.50;99.90
17701;DHT22;8969;48.576;12.580;2022-11-13T19:04:53;9.40;99.90
17701;DHT22;8969;48.576;12.580;2022-11-13T19:07:40;9.40;99.90
17701;DHT22;8969;48.576;12.580;2022-11-13T19:10:28;9.40;99.90
17701;DHT22;8969;48.576;12.580;2022-11-13T19:13:15;9.50;99.90
17701;DHT22;8969;48.576;12.580;2022-11-13T19:16:04;9.40;99.90
17701;DHT22;8969;48.576;12.580;2022-11-13T19:18:53;9.30;99.90
17701;DHT22;8969;48.576;12.580;2022-11-13T19:21:41;9.40;99.90
17701;DHT22;8969;48.576;12.580;2022-11-13T19:24:28;9.50;99.90
17701;DHT22;8969;48.576;12.580;2022-11-13T19:27:15;9.50;99.90
17701;DHT22;8969;48.576;12.580;2022-11-13T19:30:03;9.40;99.90
17701;DHT22;8969;48.576;12.580;2022-11-13T19:32:50;9.40;99.90
17701;DHT22;8969;48.576;12.580;2022-11-13T19:35:37;9.40;99.90
17701;DHT22;8969;48.576;12.580;2022-11-13T19:38:25;9.40;99.90
17701;DHT22;8969;48.576;12.580;2022-11-13T19:41:14;9.40;99.90
17701;DHT22;8969;48.576;12.580;2022-11-13T19:44:01;9.40;99.90
17701;DHT22;8969;48.576;12.580;2022-11-13T19:46:47;9.30;99.90
17701;DHT22;8969;48.576;12.580;2022-11-13T19:49:35;9.30;99.90
17701;DHT22;8969;48.576;12.580;2022-11-13T19:52:23;9.30;99.90
17701;DHT22;8969;48.576;12.580;2022-11-13T19:55:12;9.20;99.90
17701;DHT22;8969;48.576;12.580;2022-11-13T19:57:59;9.30;99.90
17701;DHT22;8969;48.576;12.580;2022-11-13T20:00:46;9.30;99.90
17701;DHT22;8969;48.576;12.580;2022-11-13T20:03:33;9.30;99.90
17701;DHT22;8969;48.576;12.580;2022-11-13T20:06:20;9.30;99.90
17701;DHT22;8969;48.576;12.580;2022-11-13T20:09:07;9.20;99.90
17701;DHT22;8969;48.576;12.580;2022-11-13T20:11:57;9.20;99.90
17701;DHT22;8969;48.576;12.580;2022-11-13T20:14:44;9.30;99.90
17701;DHT22;8969;48.576;12.580;2022-11-13T20:17:31;9.20;99.90
17701;DHT22;8969;48.576;12.580;2022-11-13T20:20:17;9.20;99.90
17701;DHT22;8969;48.576;12.580;2022-11-13T20:23:04;9.20;99.90
17701;DHT22;8969;48.576;12.580;2022-11-13T20:25:52;9.20;99.90
17701;DHT22;8969;48.576;12.580;2022-11-13T20:28:41;9.10;99.90
17701;DHT22;8969;48.576;12.580;2022-11-13T20:31:27;9.10;99.90
17701;DHT22;8969;48.576;12.580;2022-11-13T20:34:14;9.00;99.90
17701;DHT22;8969;48.576;12.580;2022-11-13T20:37:01;9.10;99.90
17701;DHT22;8969;48.576;12.580;2022-11-13T20:39:47;9.00;99.90
17701;DHT22;8969;48.576;12.580;2022-11-13T20:42:34;9.00;99.90
17701;DHT22;8969;48.576;12.580;2022-11-13T20:45:22;9.00;99.90
17701;DHT22;8969;48.576;12.580;2022-11-13T20:48:10;9.00;99.90
17701;DHT22;8969;48.576;12.580;2022-11-13T20:50:56;9.00;99.90
17701;DHT22;8969;48.576;12.580;2022-11-13T20:53:50;8.90;99.90
17701;DHT22;8969;48.576;12.580;2022-11-13T20:56:38;8.90;99.90
17701;DHT22;8969;48.576;12.580;2022-11-13T20:59:25;8.90;99.90
17701;DHT22;8969;48.576;12.580;2022-11-13T21:02:15;8.90;99.90
17701;DHT22;8969;48.576;12.580;2022-11-13T21:05:01;8.90;99.90
17701;DHT22;8969;48.576;12.580;2022-11-13T21:07:49;8.80;99.90
17701;DHT22;8969;48.576;12.580;2022-11-13T21:10:36;8.80;99.90
17701;DHT22;8969;48.576;12.580;2022-11-13T21:13:22;8.70;99.90
17701;DHT22;8969;48.576;12.580;2022-11-13T21:16:11;8.70;99.90
17701;DHT22;8969;48.576;12.580;2022-11-13T21:18:59;8.70;99.90
17701;DHT22;8969;48.576;12.580;2022-11-13T21:21:46;8.70;99.90
17701;DHT22;8969;48.576;12.580;2022-11-13T21:24:33;8.60;99.90
17701;DHT22;8969;48.576;12.580;2022-11-13T21:27:22;8.60;99.90
17701;DHT22;8969;48.576;12.580;2022-11-13T21:30:10;8.60;99.90
17701;DHT22;8969;48.576;12.580;2022-11-13T21:32:57;8.70;99.90
17701;DHT22;8969;48.576;12.580;2022-11-13T21:35:45;8.60;99.90
17701;DHT22;8969;48.576;12.580;2022-11-13T21:38:33;8.60;99.90
17701;DHT22;8969;48.576;12.580;2022-11-13T21:41:23;8.60;99.90
17701;DHT22;8969;48.576;12.580;2022-11-13T21:44:10;8.50;99.90
17701;DHT22;8969;48.576;12.580;2022-11-13T21:46:57;8.50;99.90
17701;DHT22;8969;48.576;12.580;2022-11-13T21:49:43;8.50;99.90
17701;DHT22;8969;48.576;12.580;2022-11-13T21:52:31;8.60;99.90
17701;DHT22;8969;48.576;12.580;2022-11-13T21:55:18;8.60;99.90
17701;DHT22;8969;48.576;12.580;2022-11-13T21:58:05;8.50;99.90
17701;DHT22;8969;48.576;12.580;2022-11-13T22:00:52;8.50;99.90
